Time;durP1;ratioP1;P1;durP2;ratioP2;P2;SDS_P1;SDS_P2;PMS_P1;PMS_P2;Temp;Humidity;BMP_temperature;BMP_pressure;BME280_temperature;BME280_humidity;BME280_pressure;Samples;Min_cycle;Max_cycle;Signal;HPM_P1;HPM_P2
2021/06/15 00:00:41;;;;;;;7.68;5.45;;;20.20;99.90;;;;;;4335996;32;20079;-73
2021/06/15 00:03:08;;;;;;;7.20;5.53;;;20.20;99.90;;;;;;4311282;32;20501;-73
2021/06/15 00:05:34;;;;;;;6.60;5.20;;;19.90;99.90;;;;;;4334888;32;20465;-75
2021/06/15 00:08:00;;;;;;;8.15;4.93;;;19.90;99.90;;;;;;4335651;32;20078;-73
2021/06/15 00:10:26;;;;;;;6.37;5.43;;;19.90;99.90;;;;;;4348250;32;20066;-73
2021/06/15 00:12:53;;;;;;;7.22;4.95;;;19.80;99.90;;;;;;4348133;32;20075;-75
2021/06/15 00:15:20;;;;;;;9.18;5.05;;;19.70;99.90;;;;;;4335704;32;20058;-75
2021/06/15 00:17:46;;;;;;;8.23;4.95;;;19.80;99.90;;;;;;4348559;32;20070;-73
2021/06/15 00:20:13;;;;;;;6.80;4.62;;;19.90;99.90;;;;;;4336295;32;20098;-74
2021/06/15 00:22:40;;;;;;;6.80;4.50;;;19.80;99.90;;;;;;4314622;32;20078;-76
2021/06/15 00:25:07;;;;;;;6.45;5.10;;;19.80;99.90;;;;;;4311654;32;20171;-74
2021/06/15 00:27:33;;;;;;;5.68;4.57;;;19.70;99.90;;;;;;4348388;32;20457;-74
2021/06/15 00:30:00;;;;;;;7.55;4.82;;;19.80;99.90;;;;;;4311576;32;20074;-74
2021/06/15 00:32:26;;;;;;;7.90;5.12;;;19.80;99.90;;;;;;4348006;32;20070;-73
2021/06/15 00:34:52;;;;;;;7.22;4.97;;;19.80;99.90;;;;;;4313966;32;20086;-73
2021/06/15 00:37:18;;;;;;;8.05;5.10;;;19.70;99.90;;;;;;4349653;32;20090;-74
2021/06/15 00:39:47;;;;;;;6.57;4.75;;;19.80;99.90;;;;;;4366982;32;20066;-74
2021/06/15 00:42:13;;;;;;;7.03;4.97;;;19.70;99.90;;;;;;4349136;32;20070;-73
2021/06/15 00:44:39;;;;;;;8.43;5.30;;;19.70;99.90;;;;;;4368958;32;20062;-74
2021/06/15 00:47:05;;;;;;;6.30;5.03;;;19.60;99.90;;;;;;4361435;32;20093;-75
2021/06/15 00:49:34;;;;;;;10.13;5.30;;;19.50;99.90;;;;;;4371115;32;20067;-74
2021/06/15 00:52:00;;;;;;;7.45;5.30;;;19.60;99.90;;;;;;4370310;32;20059;-74
2021/06/15 00:54:26;;;;;;;9.40;5.85;;;19.50;99.90;;;;;;4351539;32;20089;-74
2021/06/15 00:56:53;;;;;;;9.95;6.93;;;19.40;99.90;;;;;;4366395;32;20062;-73
2021/06/15 00:59:19;;;;;;;9.40;6.68;;;19.30;99.90;;;;;;4349666;32;20083;-74
2021/06/15 01:01:46;;;;;;;8.68;6.55;;;19.30;99.90;;;;;;4360753;32;20077;-76
2021/06/15 01:04:12;;;;;;;8.82;6.43;;;19.40;99.90;;;;;;4341500;32;20151;-74
2021/06/15 01:06:55;;;;;;;10.45;7.03;;;19.30;99.90;;;;;;4340088;32;20497;-75
2021/06/15 01:10:01;;;;;;;11.70;6.70;;;19.30;99.90;;;;;;4359213;32;20151;-73
2021/06/15 01:13:08;;;;;;;8.27;6.95;;;19.30;99.90;;;;;;4339769;32;20172;-73
2021/06/15 01:15:57;;;;;;;11.60;7.03;;;19.40;99.90;;;;;;4352238;32;20090;-75
2021/06/15 01:18:25;;;;;;;9.60;7.00;;;19.50;99.90;;;;;;4339785;32;20168;-72
2021/06/15 01:20:55;;;;;;;10.68;7.12;;;19.50;99.90;;;;;;4326349;32;20062;-73
2021/06/15 01:23:42;;;;;;;8.23;6.03;;;19.50;99.90;;;;;;4337801;32;20078;-74
2021/06/15 01:26:15;;;;;;;9.15;6.20;;;19.30;99.90;;;;;;4338698;32;20067;-75
2021/06/15 01:29:00;;;;;;;9.40;5.85;;;19.40;99.90;;;;;;4364226;32;20147;-74
2021/06/15 01:31:45;;;;;;;7.32;5.47;;;19.30;99.90;;;;;;4338841;32;20091;-75
2021/06/15 01:34:32;;;;;;;6.45;5.30;;;19.30;99.90;;;;;;4349429;32;20154;-74
2021/06/15 01:37:15;;;;;;;6.45;5.37;;;19.40;99.90;;;;;;4322527;32;20134;-74
2021/06/15 01:40:06;;;;;;;8.35;5.90;;;19.50;99.90;;;;;;4327703;32;20078;-73
2021/06/15 01:42:40;;;;;;;7.15;5.25;;;19.50;99.90;;;;;;4350375;32;20071;-75
2021/06/15 01:45:32;;;;;;;8.20;5.72;;;19.50;99.90;;;;;;4337276;32;20175;-73
2021/06/15 01:48:25;;;;;;;9.35;6.03;;;19.50;99.90;;;;;;4351842;32;20074;-73
2021/06/15 01:50:51;;;;;;;7.35;5.00;;;19.30;99.90;;;;;;4337771;32;20513;-74
2021/06/15 01:53:18;;;;;;;7.07;5.28;;;19.30;99.90;;;;;;4337384;32;20086;-73
2021/06/15 01:56:04;;;;;;;6.85;5.03;;;19.20;99.90;;;;;;4337272;32;20067;-74
2021/06/15 01:58:33;;;;;;;7.10;4.93;;;19.40;99.90;;;;;;4326079;32;20078;-74
2021/06/15 02:01:00;;;;;;;6.30;4.93;;;19.50;99.90;;;;;;4337994;32;20059;-73
2021/06/15 02:03:26;;;;;;;6.47;4.97;;;19.60;99.90;;;;;;4337688;32;20662;-73
2021/06/15 02:05:58;;;;;;;9.02;5.05;;;19.60;99.90;;;;;;4325184;32;20513;-74
2021/06/15 02:08:41;;;;;;;6.90;4.80;;;19.70;99.90;;;;;;4337483;32;20083;-74
2021/06/15 02:11:08;;;;;;;9.65;5.75;;;19.70;99.90;;;;;;4336893;32;20581;-74
2021/06/15 02:13:47;;;;;;;10.35;5.75;;;19.60;99.90;;;;;;4336926;32;20162;-75
2021/06/15 02:16:14;;;;;;;9.40;6.12;;;19.50;99.90;;;;;;4338218;32;20162;-73
2021/06/15 02:18:42;;;;;;;8.77;6.12;;;19.60;99.90;;;;;;4325217;32;20067;-74
2021/06/15 02:21:10;;;;;;;7.20;6.03;;;19.50;99.90;;;;;;4337290;32;20069;-73
2021/06/15 02:23:37;;;;;;;7.12;5.85;;;19.50;99.90;;;;;;4349810;32;20070;-73
2021/06/15 02:26:08;;;;;;;7.22;6.20;;;19.40;99.90;;;;;;4337283;32;20496;-75
2021/06/15 02:28:35;;;;;;;10.15;6.35;;;19.40;99.90;;;;;;4337686;32;20062;-74
2021/06/15 02:31:02;;;;;;;9.18;6.18;;;19.50;99.90;;;;;;4324697;32;20066;-75
2021/06/15 02:33:36;;;;;;;8.93;6.00;;;19.50;99.90;;;;;;4324747;32;20076;-74
2021/06/15 02:36:11;;;;;;;9.15;5.97;;;19.50;99.90;;;;;;4337089;32;20090;-74
2021/06/15 02:38:52;;;;;;;9.00;6.60;;;19.50;99.90;;;;;;4337373;32;20086;-74
2021/06/15 02:41:18;;;;;;;9.25;6.05;;;19.60;99.90;;;;;;4337015;32;20207;-75
2021/06/15 02:43:44;;;;;;;6.35;4.85;;;19.80;99.90;;;;;;4324298;32;20089;-74
2021/06/15 02:46:13;;;;;;;9.70;6.60;;;19.90;99.90;;;;;;4336228;32;20095;-73
2021/06/15 02:48:39;;;;;;;8.20;6.60;;;20.00;99.90;;;;;;4336305;32;20067;-74
2021/06/15 02:51:06;;;;;;;9.93;7.30;;;19.90;99.90;;;;;;4336463;32;20094;-74
2021/06/15 02:53:49;;;;;;;10.68;6.28;;;19.80;99.90;;;;;;4336601;32;20079;-73
2021/06/15 02:56:17;;;;;;;9.88;6.80;;;19.90;99.90;;;;;;4323796;32;20063;-73
2021/06/15 02:58:47;;;;;;;9.95;6.70;;;20.10;99.90;;;;;;4350366;32;20089;-74
2021/06/15 03:01:14;;;;;;;7.18;5.25;;;20.20;99.90;;;;;;4324719;32;20105;-74
2021/06/15 03:03:40;;;;;;;8.65;5.75;;;20.30;99.90;;;;;;4324341;32;20180;-75
2021/06/15 03:06:07;;;;;;;8.23;6.05;;;20.30;99.90;;;;;;4324169;32;20573;-74
2021/06/15 03:08:33;;;;;;;9.40;5.85;;;20.40;99.90;;;;;;4336601;32;20094;-73
2021/06/15 03:11:02;;;;;;;9.05;6.05;;;20.30;99.90;;;;;;4348441;32;20179;-75
2021/06/15 03:13:53;;;;;;;8.02;5.68;;;20.20;99.90;;;;;;4335943;32;20090;-75
2021/06/15 03:16:22;;;;;;;10.52;6.22;;;20.10;99.90;;;;;;4351358;32;20066;-74
2021/06/15 03:18:57;;;;;;;8.10;6.10;;;20.10;99.90;;;;;;4336932;32;20059;-73
2021/06/15 03:21:24;;;;;;;7.12;5.93;;;20.20;99.90;;;;;;4348256;32;20058;-73
2021/06/15 03:24:02;;;;;;;9.23;5.97;;;20.20;99.90;;;;;;4350797;32;20074;-73
2021/06/15 03:26:50;;;;;;;9.35;5.62;;;20.20;99.90;;;;;;4336862;32;20492;-73
2021/06/15 03:29:24;;;;;;;8.38;4.32;;;20.20;99.90;;;;;;4337436;32;20078;-74
2021/06/15 03:31:52;;;;;;;7.35;5.28;;;20.40;99.90;;;;;;4336722;32;20077;-73
2021/06/15 03:34:23;;;;;;;5.07;4.35;;;20.60;99.90;;;;;;4336415;32;20086;-74
2021/06/15 03:36:49;;;;;;;7.57;5.68;;;20.70;99.90;;;;;;4328815;32;20154;-75
2021/06/15 03:39:16;;;;;;;5.95;4.97;;;20.70;99.90;;;;;;4323884;32;20073;-74
2021/06/15 03:41:42;;;;;;;5.53;4.68;;;20.70;99.90;;;;;;4336999;32;20158;-73
2021/06/15 03:44:08;;;;;;;7.65;5.53;;;20.90;99.90;;;;;;4324504;32;20501;-71
2021/06/15 03:46:35;;;;;;;6.53;5.05;;;20.90;99.90;;;;;;4336379;32;20113;-73
2021/06/15 03:49:02;;;;;;;8.02;4.97;;;20.90;99.90;;;;;;4335917;32;20175;-74
2021/06/15 03:51:32;;;;;;;7.80;5.62;;;20.90;99.90;;;;;;4323650;32;20074;-73
2021/06/15 03:54:06;;;;;;;9.30;5.78;;;21.00;99.90;;;;;;4336196;32;20076;-74
2021/06/15 03:56:42;;;;;;;9.48;5.50;;;21.30;99.90;;;;;;4325001;32;20465;-73
2021/06/15 03:59:09;;;;;;;;;;;21.30;99.90;;;;;;4349242;32;20074;-73
2021/06/15 04:01:36;;;;;;;6.03;5.05;;;21.50;99.90;;;;;;4350278;32;19977;-74
2021/06/15 04:04:05;;;;;;;5.53;4.53;;;21.60;99.90;;;;;;4350253;32;20464;-73
2021/06/15 04:06:34;;;;;;;8.05;5.50;;;21.80;99.90;;;;;;4350697;32;20099;-74
2021/06/15 04:09:02;;;;;;;6.85;4.78;;;21.90;99.90;;;;;;4362733;32;20163;-74
2021/06/15 04:11:30;;;;;;;7.12;4.75;;;21.90;99.90;;;;;;4338324;32;20418;-74
2021/06/15 04:13:57;;;;;;;7.07;4.97;;;22.00;99.90;;;;;;4350959;32;20441;-74
2021/06/15 04:16:23;;;;;;;6.90;4.80;;;22.00;99.90;;;;;;4375613;32;20070;-74
2021/06/15 04:18:49;;;;;;;7.47;5.00;;;22.20;99.90;;;;;;4351076;32;20156;-75
2021/06/15 04:21:17;;;;;;;7.20;5.10;;;22.10;99.90;;;;;;4350495;32;20077;-74
2021/06/15 04:23:57;;;;;;;6.70;4.47;;;22.30;99.90;;;;;;4350292;32;20163;-73
2021/06/15 04:26:23;;;;;;;7.40;4.82;;;22.30;99.90;;;;;;4337864;32;20066;-73
2021/06/15 04:28:49;;;;;;;8.88;5.32;;;22.30;99.90;;;;;;4375034;32;20153;-74
2021/06/15 04:31:16;;;;;;;7.80;5.12;;;23.30;99.90;;;;;;4362783;32;20070;-73
2021/06/15 04:33:45;;;;;;;7.50;4.80;;;23.40;99.90;;;;;;4337790;32;20166;-74
2021/06/15 04:36:12;;;;;;;9.98;5.32;;;23.90;99.90;;;;;;4335416;32;20070;-73
2021/06/15 04:38:54;;;;;;;8.10;5.65;;;23.70;99.90;;;;;;4311074;32;20097;-72
2021/06/15 04:41:39;;;;;;;10.70;5.80;;;23.40;99.90;;;;;;4337227;32;20069;-73
2021/06/15 04:44:13;;;;;;;8.40;5.22;;;23.10;99.90;;;;;;4337011;32;20062;-74
2021/06/15 04:46:56;;;;;;;8.40;5.43;;;22.90;99.90;;;;;;4336096;32;20582;-73
2021/06/15 04:49:31;;;;;;;12.90;6.22;;;23.10;99.90;;;;;;4335053;32;20546;-74
2021/06/15 04:52:00;;;;;;;11.10;5.87;;;23.20;99.90;;;;;;4323926;32;20084;-73
2021/06/15 04:54:36;;;;;;;11.68;7.12;;;23.30;99.90;;;;;;4335479;32;20066;-74
2021/06/15 04:57:11;;;;;;;13.23;8.13;;;23.10;99.90;;;;;;4301231;32;20084;-74
2021/06/15 04:59:37;;;;;;;15.18;7.78;;;23.20;99.90;;;;;;4347095;32;20058;-73
2021/06/15 05:02:04;;;;;;;11.45;7.07;;;23.30;99.90;;;;;;4310788;32;20078;-74
2021/06/15 05:04:30;;;;;;;10.48;7.93;;;23.20;99.90;;;;;;4322975;32;20075;-73
2021/06/15 05:06:56;;;;;;;12.52;7.35;;;23.10;99.90;;;;;;4323148;32;20105;-74
2021/06/15 05:09:25;;;;;;;8.50;5.55;;;23.30;99.90;;;;;;4336682;32;20523;-72
2021/06/15 05:11:53;;;;;;;12.40;6.65;;;23.10;99.90;;;;;;4323816;32;20075;-73
2021/06/15 05:14:19;;;;;;;11.77;6.90;;;23.30;99.90;;;;;;4323205;32;20133;-74
2021/06/15 05:16:45;;;;;;;8.48;5.68;;;23.20;99.90;;;;;;4335433;32;20066;-73
2021/06/15 05:19:11;;;;;;;9.80;5.97;;;23.10;99.90;;;;;;4323728;32;20143;-75
2021/06/15 05:21:59;;;;;;;9.52;5.32;;;23.40;99.90;;;;;;4350060;32;20200;-73
2021/06/15 05:24:47;;;;;;;7.03;4.93;;;23.80;99.90;;;;;;4350182;32;20098;-74
2021/06/15 05:27:14;;;;;;;6.55;3.67;;;23.80;99.90;;;;;;4350692;32;20533;-74
2021/06/15 05:29:40;;;;;;;6.30;3.87;;;23.40;99.90;;;;;;4313633;32;20093;-74
2021/06/15 05:32:08;;;;;;;5.97;3.75;;;23.50;99.90;;;;;;4325618;32;20151;-74
2021/06/15 05:34:38;;;;;;;5.15;3.05;;;23.30;99.90;;;;;;4350129;32;20082;-73
2021/06/15 05:37:05;;;;;;;4.00;3.17;;;23.20;99.90;;;;;;4334499;32;20093;-73
2021/06/15 05:39:32;;;;;;;3.85;3.33;;;23.30;99.90;;;;;;4352483;32;20085;-74
2021/06/15 05:41:58;;;;;;;5.47;3.40;;;23.30;99.90;;;;;;4327866;32;20164;-74
2021/06/15 05:44:24;;;;;;;3.85;3.45;;;23.30;99.90;;;;;;4351902;32;20157;-73
2021/06/15 05:46:50;;;;;;;5.05;3.37;;;23.20;99.90;;;;;;4352223;32;20058;-74
2021/06/15 05:49:16;;;;;;;5.50;3.35;;;23.30;99.90;;;;;;4351815;32;20078;-74
2021/06/15 05:51:43;;;;;;;6.10;3.55;;;23.20;99.90;;;;;;4339867;32;20161;-74
2021/06/15 05:54:09;;;;;;;8.30;4.57;;;23.40;99.90;;;;;;4336364;32;20747;-73
2021/06/15 05:56:35;;;;;;;6.60;3.62;;;23.30;99.90;;;;;;4348873;32;20086;-73
2021/06/15 05:59:01;;;;;;;5.12;3.60;;;23.40;99.90;;;;;;4337542;32;20592;-73
2021/06/15 06:01:28;;;;;;;6.85;3.78;;;23.40;99.90;;;;;;4335485;32;20101;-73
2021/06/15 06:04:06;;;;;;;6.85;4.18;;;23.50;99.90;;;;;;4324358;32;20082;-74
2021/06/15 06:09:17;;;;;;;21.10;8.93;;;23.60;99.90;;;;;;4318126;32;20128;-73
2021/06/15 06:11:44;;;;;;;10.85;4.70;;;23.50;99.90;;;;;;4324210;32;20074;-74
2021/06/15 06:14:11;;;;;;;7.07;4.10;;;23.70;99.90;;;;;;4312502;32;20067;-74
2021/06/15 06:16:40;;;;;;;6.80;4.10;;;23.90;99.90;;;;;;4337360;32;20102;-74
2021/06/15 06:19:06;;;;;;;7.32;3.67;;;23.40;99.90;;;;;;4361810;32;20069;-72
2021/06/15 06:21:34;;;;;;;3.78;3.15;;;23.60;99.90;;;;;;4312438;32;20086;-72
2021/06/15 06:24:01;;;;;;;8.25;4.03;;;24.30;99.90;;;;;;4315373;32;20067;-69
2021/06/15 06:26:28;;;;;;;5.15;3.10;;;24.40;99.90;;;;;;4337036;32;20097;-68
2021/06/15 06:28:54;;;;;;;5.97;3.58;;;24.40;99.90;;;;;;4339414;32;20072;-73
2021/06/15 06:31:20;;;;;;;5.45;3.45;;;24.50;99.90;;;;;;4349119;32;20158;-73
2021/06/15 06:33:47;;;;;;;4.70;3.53;;;24.70;99.90;;;;;;4360946;32;20102;-73
2021/06/15 06:36:13;;;;;;;6.25;3.72;;;25.50;99.90;;;;;;4344287;32;20069;-73
2021/06/15 06:38:40;;;;;;;5.30;3.40;;;25.10;99.90;;;;;;4337150;32;20173;-73
2021/06/15 06:41:07;;;;;;;7.93;3.90;;;24.80;99.90;;;;;;4343294;32;20117;-72
2021/06/15 06:43:33;;;;;;;3.65;3.00;;;24.70;99.90;;;;;;4356474;32;20059;-72
2021/06/15 06:46:02;;;;;;;7.62;3.60;;;24.80;99.90;;;;;;4342847;32;20074;-73
2021/06/15 06:48:29;;;;;;;7.25;3.60;;;24.90;99.90;;;;;;4358296;32;20269;-72
2021/06/15 06:50:55;;;;;;;7.87;3.67;;;24.60;99.90;;;;;;4353988;32;20527;-65
2021/06/15 06:53:21;;;;;;;4.05;3.47;;;24.90;99.90;;;;;;4356268;32;20078;-66
2021/06/15 06:55:47;;;;;;;8.25;3.95;;;25.60;99.90;;;;;;4342435;32;20093;-65
2021/06/15 06:58:13;;;;;;;7.93;3.72;;;25.70;99.90;;;;;;4344681;32;20681;-66
2021/06/15 07:00:40;;;;;;;8.93;4.00;;;25.20;99.90;;;;;;4348085;32;20062;-67
2021/06/15 07:03:06;;;;;;;7.68;3.92;;;24.70;99.90;;;;;;4352841;32;20158;-65
2021/06/15 07:05:32;;;;;;;9.15;4.40;;;24.80;99.90;;;;;;4344490;32;20110;-67
2021/06/15 07:07:58;;;;;;;10.63;4.00;;;24.70;99.90;;;;;;4361946;32;20090;-65
2021/06/15 07:10:24;;;;;;;7.47;3.78;;;24.70;99.90;;;;;;4349963;32;20082;-66
2021/06/15 07:12:51;;;;;;;5.97;3.70;;;24.90;99.90;;;;;;4333561;32;20150;-71
2021/06/15 07:15:18;;;;;;;4.90;3.53;;;24.80;99.90;;;;;;4361651;32;20070;-74
2021/06/15 07:17:44;;;;;;;7.20;3.65;;;25.10;99.90;;;;;;4324614;32;20151;-74
2021/06/15 07:20:11;;;;;;;4.78;3.58;;;25.20;99.90;;;;;;4330939;32;20059;-72
2021/06/15 07:22:38;;;;;;;4.62;3.30;;;25.10;99.90;;;;;;4328627;32;20509;-73
2021/06/15 07:25:06;;;;;;;4.80;3.58;;;25.80;99.90;;;;;;4338012;32;20100;-74
2021/06/15 07:27:36;;;;;;;4.93;3.28;;;25.80;99.90;;;;;;4342293;32;20593;-76
2021/06/15 07:30:05;;;;;;;6.47;3.78;;;26.00;99.90;;;;;;4352887;32;20479;-75
2021/06/15 07:32:31;;;;;;;5.85;3.72;;;26.30;99.90;;;;;;4328853;32;20082;-75
2021/06/15 07:34:58;;;;;;;5.55;3.70;;;26.30;99.90;;;;;;4357322;32;20514;-74
2021/06/15 07:37:24;;;;;;;6.80;4.00;;;26.40;99.90;;;;;;4331329;32;20086;-75
2021/06/15 07:39:50;;;;;;;7.47;4.10;;;27.40;99.90;;;;;;4341939;32;20120;-76
2021/06/15 07:42:16;;;;;;;5.82;3.47;;;27.60;99.90;;;;;;4358772;32;20085;-73
2021/06/15 07:44:43;;;;;;;6.50;4.22;;;27.50;99.90;;;;;;4349839;32;20088;-72
2021/06/15 07:47:09;;;;;;;5.12;3.55;;;27.40;99.90;;;;;;4343764;32;20082;-62
2021/06/15 07:49:35;;;;;;;9.18;4.72;;;27.50;99.90;;;;;;4359227;32;20074;-65
2021/06/15 07:52:01;;;;;;;7.95;3.92;;;27.30;99.90;;;;;;4346230;32;20085;-64
2021/06/15 07:54:28;;;;;;;7.82;4.10;;;27.30;99.90;;;;;;4326523;32;20472;-63
2021/06/15 07:56:54;;;;;;;6.37;4.03;;;27.50;99.90;;;;;;4343157;32;20100;-66
2021/06/15 08:01:46;;;;;;;5.12;3.67;;;27.20;99.90;;;;;;3800008;37;20474;-64
2021/06/15 08:04:15;;;;;;;6.00;3.78;;;28.30;99.90;;;;;;4338097;32;20063;-65
2021/06/15 08:06:42;;;;;;;6.97;3.85;;;27.70;99.90;;;;;;4345219;32;20051;-64
2021/06/15 08:09:09;;;;;;;5.03;3.47;;;27.80;99.90;;;;;;4343659;32;20121;-64
2021/06/15 08:11:35;;;;;;;6.82;3.65;;;27.70;99.90;;;;;;4358143;32;20430;-65
2021/06/15 08:14:02;;;;;;;6.72;3.30;;;27.40;99.90;;;;;;4364065;32;20191;-66
2021/06/15 08:16:28;;;;;;;6.43;3.70;;;28.00;99.90;;;;;;4357340;32;20066;-68
2021/06/15 08:18:54;;;;;;;6.15;3.90;;;28.40;99.90;;;;;;4356991;32;20145;-66
2021/06/15 08:21:21;;;;;;;7.00;3.90;;;28.30;99.90;;;;;;4365237;32;20073;-64
2021/06/15 08:23:47;;;;;;;8.57;4.65;;;28.10;99.90;;;;;;4364640;32;20084;-64
2021/06/15 08:26:13;;;;;;;8.43;4.68;;;27.80;99.90;;;;;;4357735;32;20101;-67
2021/06/15 08:28:39;;;;;;;9.18;4.45;;;28.00;99.90;;;;;;4354465;32;20124;-65
2021/06/15 08:31:05;;;;;;;8.52;4.78;;;27.70;99.90;;;;;;4343477;32;20117;-63
2021/06/15 08:33:32;;;;;;;9.27;4.75;;;27.60;99.90;;;;;;4340708;32;20096;-64
2021/06/15 08:35:58;;;;;;;6.90;4.53;;;27.90;99.90;;;;;;4357640;32;20084;-62
2021/06/15 08:38:24;;;;;;;8.73;5.10;;;27.70;99.90;;;;;;4356209;32;20150;-65
2021/06/15 08:40:51;;;;;;;8.18;4.72;;;27.50;99.90;;;;;;4362977;32;20066;-64
2021/06/15 08:43:18;;;;;;;8.85;4.62;;;27.50;99.90;;;;;;4344795;32;20210;-63
2021/06/15 08:45:45;;;;;;;8.18;4.57;;;27.70;99.90;;;;;;4346391;32;20073;-63
2021/06/15 08:48:11;;;;;;;11.27;4.57;;;27.80;99.90;;;;;;4350402;32;21194;-66
2021/06/15 08:50:38;;;;;;;8.73;4.47;;;28.40;99.90;;;;;;4356350;32;20097;-65
2021/06/15 08:53:07;;;;;;;6.18;3.47;;;29.20;99.90;;;;;;4350428;32;20207;-68
2021/06/15 08:55:34;;;;;;;5.78;3.40;;;28.50;99.90;;;;;;4340108;32;20078;-65
2021/06/15 08:58:35;;;;;;;5.72;3.00;;;28.40;99.90;;;;;;4342108;32;20086;-64
2021/06/15 09:01:01;;;;;;;4.72;2.72;;;28.50;99.90;;;;;;4341214;32;20149;-64
2021/06/15 09:03:27;;;;;;;5.90;2.75;;;28.90;95.10;;;;;;4342389;32;20468;-64
2021/06/15 09:05:55;;;;;;;5.68;2.47;;;29.10;93.60;;;;;;4352932;32;20616;-64
2021/06/15 09:08:22;;;;;;;4.97;2.83;;;28.90;92.10;;;;;;4320098;32;20080;-67
2021/06/15 09:10:48;;;;;;;5.45;2.92;;;29.20;92.00;;;;;;4344971;32;20491;-64
2021/06/15 09:13:36;;;;;;;5.93;2.78;;;29.20;91.60;;;;;;4319483;32;20063;-68
2021/06/15 09:16:25;;;;;;;4.45;2.33;;;28.70;91.80;;;;;;4334286;32;20108;-66
2021/06/15 09:18:54;;;;;;;6.43;2.87;;;28.60;93.30;;;;;;4323560;33;20081;-65
2021/06/15 09:21:30;;;;;;;6.72;2.97;;;28.80;91.00;;;;;;4325200;32;20120;-66
2021/06/15 09:24:25;;;;;;;6.32;3.03;;;28.80;90.90;;;;;;4341441;32;20129;-64
2021/06/15 09:27:08;;;;;;;6.25;3.03;;;28.70;91.80;;;;;;4333165;32;20258;-65
2021/06/15 09:29:39;;;;;;;8.23;3.35;;;28.60;93.40;;;;;;4310266;33;20076;-63
2021/06/15 09:32:08;;;;;;;6.00;3.15;;;28.80;93.50;;;;;;4333890;32;20070;-67
2021/06/15 09:34:34;;;;;;;8.48;2.90;;;28.70;91.70;;;;;;4346585;32;20119;-63
2021/06/15 09:37:06;;;;;;;5.22;3.08;;;28.90;92.00;;;;;;4339048;32;20067;-64
2021/06/15 09:39:33;;;;;;;4.90;2.67;;;28.50;91.40;;;;;;4319214;33;20097;-64
2021/06/15 09:42:00;;;;;;;7.78;2.72;;;28.50;91.90;;;;;;4307080;32;20139;-65
2021/06/15 09:44:31;;;;;;;6.18;3.05;;;28.60;91.50;;;;;;4333567;32;20075;-66
2021/06/15 09:47:04;;;;;;;5.37;2.78;;;28.80;91.90;;;;;;4322834;32;20074;-65
2021/06/15 09:49:41;;;;;;;4.95;2.78;;;28.70;87.20;;;;;;4316611;33;20103;-64
2021/06/15 09:52:33;;;;;;;4.28;2.72;;;28.90;83.70;;;;;;4325485;32;20184;-63
2021/06/15 09:55:05;;;;;;;5.15;2.65;;;29.10;83.10;;;;;;4331478;32;20561;-66
2021/06/15 09:57:39;;;;;;;5.28;2.78;;;29.20;84.60;;;;;;4309356;32;20163;-64
2021/06/15 10:00:19;;;;;;;5.07;2.47;;;28.90;86.80;;;;;;4306285;32;20070;-68
2021/06/15 10:02:57;;;;;;;6.25;2.80;;;28.70;88.70;;;;;;4327511;32;20438;-68
2021/06/15 10:05:31;;;;;;;4.35;3.08;;;28.50;86.30;;;;;;4334647;32;20169;-66
2021/06/15 10:08:04;;;;;;;5.93;2.90;;;29.00;85.40;;;;;;4329003;32;20085;-64
2021/06/15 10:10:39;;;;;;;6.68;2.87;;;28.70;91.80;;;;;;4320933;32;20177;-63
2021/06/15 10:13:06;;;;;;;5.57;2.90;;;28.50;86.10;;;;;;4317582;33;20178;-65
2021/06/15 10:15:34;;;;;;;5.97;2.47;;;28.60;85.60;;;;;;4353271;32;20090;-64
2021/06/15 10:18:02;;;;;;;5.12;2.60;;;29.00;82.90;;;;;;4341494;32;20093;-66
2021/06/15 10:20:30;;;;;;;4.30;2.58;;;28.80;82.10;;;;;;4314224;32;20107;-64
2021/06/15 10:22:58;;;;;;;6.37;2.92;;;28.90;83.80;;;;;;4339911;32;20102;-65
2021/06/15 10:25:27;;;;;;;5.30;2.50;;;28.80;83.20;;;;;;4332444;32;20086;-64
2021/06/15 10:27:57;;;;;;;7.15;3.00;;;28.50;85.90;;;;;;4299133;33;20156;-65
2021/06/15 10:30:34;;;;;;;4.87;3.08;;;28.40;86.90;;;;;;4303868;32;20094;-64
2021/06/15 10:33:10;;;;;;;7.10;3.30;;;28.70;87.20;;;;;;4334414;32;20175;-64
2021/06/15 10:35:49;;;;;;;5.45;3.05;;;29.50;83.30;;;;;;4330766;32;20082;-63
2021/06/15 10:38:25;;;;;;;3.80;3.00;;;30.00;81.20;;;;;;4346819;32;20062;-64
2021/06/15 10:40:53;;;;;;;6.80;3.03;;;30.20;80.70;;;;;;4336126;32;20158;-63
2021/06/15 10:43:44;;;;;;;6.22;3.12;;;30.30;77.60;;;;;;4327808;32;20085;-65
2021/06/15 10:46:13;;;;;;;7.47;2.90;;;30.20;76.00;;;;;;4338510;32;20086;-66
2021/06/15 10:48:44;;;;;;;5.90;3.05;;;29.60;79.80;;;;;;4353438;32;20063;-65
2021/06/15 10:51:25;;;;;;;5.32;3.35;;;30.60;73.70;;;;;;4348685;32;20082;-63
2021/06/15 10:53:52;;;;;;;5.22;2.90;;;30.90;71.30;;;;;;4346378;32;20144;-63
2021/06/15 10:56:20;;;;;;;6.57;3.20;;;29.90;67.00;;;;;;4316342;32;20097;-66
2021/06/15 10:59:07;;;;;;;7.12;2.90;;;30.10;75.50;;;;;;4320160;32;20495;-64
2021/06/15 11:01:41;;;;;;;4.85;3.12;;;30.50;75.70;;;;;;4321912;32;20066;-66
2021/06/15 11:04:12;;;;;;;7.37;3.10;;;30.20;72.90;;;;;;4343148;32;20081;-66
2021/06/15 11:06:47;;;;;;;6.50;2.87;;;30.00;76.90;;;;;;4342310;32;20071;-66
2021/06/15 11:09:21;;;;;;;6.37;3.50;;;30.20;74.00;;;;;;4330110;32;20147;-67
2021/06/15 11:11:58;;;;;;;4.53;2.95;;;30.40;72.40;;;;;;4308036;32;20115;-66
2021/06/15 11:14:24;;;;;;;6.15;3.28;;;30.20;76.40;;;;;;4340791;32;20070;-64
2021/06/15 11:16:53;;;;;;;4.85;3.00;;;30.50;70.20;;;;;;4329868;32;20497;-63
2021/06/15 11:19:30;;;;;;;5.28;3.30;;;30.60;72.90;;;;;;4296271;32;20127;-66
2021/06/15 11:21:59;;;;;;;3.72;2.75;;;30.60;69.60;;;;;;4331228;32;20151;-64
2021/06/15 11:24:51;;;;;;;4.18;2.85;;;30.80;63.40;;;;;;4319373;32;20110;-65
2021/06/15 11:27:25;;;;;;;4.70;2.60;;;30.80;62.50;;;;;;4358142;32;20093;-64
2021/06/15 11:29:55;;;;;;;3.95;2.53;;;31.20;59.40;;;;;;4331244;32;20070;-65
2021/06/15 11:32:28;;;;;;;6.32;2.75;;;31.10;56.40;;;;;;4332531;32;20577;-65
2021/06/15 11:35:12;;;;;;;6.25;2.87;;;30.70;60.30;;;;;;4355918;32;20133;-63
2021/06/15 11:37:48;;;;;;;5.15;2.75;;;30.20;55.60;;;;;;4327604;32;20074;-64
2021/06/15 11:40:28;;;;;;;2.83;2.40;;;30.60;58.00;;;;;;4311133;32;20108;-68
2021/06/15 11:43:07;;;;;;;5.62;2.80;;;31.20;50.50;;;;;;4332950;32;20179;-68
2021/06/15 11:45:42;;;;;;;5.55;2.83;;;31.20;50.90;;;;;;4340197;32;20063;-64
2021/06/15 11:48:16;;;;;;;2.70;2.50;;;31.20;49.50;;;;;;4330346;32;20163;-64
2021/06/15 11:50:47;;;;;;;7.22;2.72;;;30.80;50.30;;;;;;4320400;32;20063;-63
2021/06/15 11:53:16;;;;;;;5.57;2.80;;;31.00;51.40;;;;;;4312317;32;20158;-64
2021/06/15 11:55:52;;;;;;;7.62;2.67;;;31.10;48.70;;;;;;4353226;32;20074;-62
2021/06/15 11:58:23;;;;;;;4.40;2.50;;;31.00;49.10;;;;;;4348151;32;20110;-64
2021/06/15 12:00:55;;;;;;;3.65;2.40;;;31.90;48.00;;;;;;4335753;32;20528;-62
2021/06/15 12:03:24;;;;;;;4.62;2.58;;;32.00;40.60;;;;;;4348451;32;20066;-62
2021/06/15 12:05:55;;;;;;;3.20;2.72;;;32.00;43.00;;;;;;4335935;32;20437;-63
2021/06/15 12:08:21;;;;;;;5.65;2.58;;;31.00;43.60;;;;;;4323557;32;20081;-62
2021/06/15 12:10:49;;;;;;;5.30;2.50;;;30.70;42.70;;;;;;4318004;32;20075;-64
2021/06/15 12:13:18;;;;;;;4.03;2.30;;;30.30;44.50;;;;;;4310287;32;20498;-63
2021/06/15 12:15:46;;;;;;;5.35;2.50;;;30.60;44.10;;;;;;4334602;32;20503;-63
2021/06/15 12:18:23;;;;;;;4.75;2.40;;;30.30;43.60;;;;;;4338804;32;20074;-63
2021/06/15 12:20:53;;;;;;;3.47;2.62;;;30.50;43.50;;;;;;4345003;32;20078;-64
2021/06/15 12:23:48;;;;;;;2.97;2.37;;;30.90;43.90;;;;;;4326948;32;20145;-66
2021/06/15 12:26:36;;;;;;;5.47;2.70;;;31.10;41.10;;;;;;4333541;32;20055;-63
2021/06/15 12:29:13;;;;;;;5.97;2.40;;;31.10;40.80;;;;;;4294828;32;20143;-63
2021/06/15 12:31:46;;;;;;;3.83;2.25;;;31.00;42.20;;;;;;4314766;32;20110;-64
2021/06/15 12:34:18;;;;;;;5.93;2.40;;;30.90;42.60;;;;;;4341049;32;20169;-65
2021/06/15 12:36:47;;;;;;;5.22;2.75;;;30.90;44.40;;;;;;4345681;32;20067;-62
2021/06/15 12:39:27;;;;;;;6.82;2.50;;;30.30;43.80;;;;;;4333622;32;20074;-65
2021/06/15 12:42:05;;;;;;;3.67;2.28;;;30.20;45.90;;;;;;4319857;32;20118;-70
2021/06/15 12:44:33;;;;;;;5.03;2.70;;;30.30;45.90;;;;;;4333296;32;20067;-73
2021/06/15 12:47:10;;;;;;;6.65;3.08;;;30.20;46.70;;;;;;4346857;32;20070;-70
2021/06/15 12:49:37;;;;;;;4.82;2.60;;;30.20;48.60;;;;;;4321702;32;20074;-69
2021/06/15 12:52:10;;;;;;;6.25;2.85;;;30.20;48.50;;;;;;4349932;32;20078;-67
2021/06/15 12:54:40;;;;;;;5.10;2.97;;;30.20;50.70;;;;;;4335473;32;20059;-71
2021/06/15 12:57:20;;;;;;;6.00;3.00;;;30.20;51.00;;;;;;4348051;32;20499;-64
2021/06/15 13:00:00;;;;;;;6.43;2.67;;;30.40;50.20;;;;;;4322171;32;20078;-64
2021/06/15 13:02:27;;;;;;;6.12;2.80;;;30.20;50.60;;;;;;4338935;32;20101;-65
2021/06/15 13:04:58;;;;;;;6.47;2.70;;;30.10;52.70;;;;;;4332123;32;20082;-64
2021/06/15 13:07:32;;;;;;;5.78;2.95;;;30.20;54.10;;;;;;4341647;32;20531;-65
2021/06/15 13:09:58;;;;;;;4.90;2.87;;;30.20;53.70;;;;;;4336157;32;20055;-65